Time;durP1;ratioP1;P1;durP2;ratioP2;P2;SDS_P1;SDS_P2;PMS_P1;PMS_P2;Temp;Humidity;BMP_temperature;BMP_pressure;BME280_temperature;BME280_humidity;BME280_pressure;Samples;Min_cycle;Max_cycle;Signal;HPM_P1;HPM_P2
2021/05/09 00:00:16;;;;;;;7.25;2.58;;;1.60;99.90;;;;;;5084014;28;20635;-72
2021/05/09 00:02:41;;;;;;;8.10;2.65;;;1.60;99.90;;;;;;5068879;28;20225;-71
2021/05/09 00:05:08;;;;;;;7.93;2.50;;;1.60;99.90;;;;;;5061836;28;20637;-72
2021/05/09 00:07:33;;;;;;;6.88;2.50;;;1.60;99.90;;;;;;5078286;28;20210;-72
2021/05/09 00:10:00;;;;;;;7.05;2.40;;;1.50;99.90;;;;;;5077926;28;20192;-71
2021/05/09 00:12:26;;;;;;;5.60;2.30;;;1.60;99.90;;;;;;5080589;28;20223;-72
2021/05/09 00:14:52;;;;;;;5.13;2.45;;;1.60;99.90;;;;;;5076516;28;20218;-71
2021/05/09 00:17:17;;;;;;;3.38;2.28;;;1.70;99.90;;;;;;5076904;28;20560;-71
2021/05/09 00:19:43;;;;;;;4.47;2.30;;;1.70;99.90;;;;;;5078999;28;20739;-72
2021/05/09 00:22:09;;;;;;;7.60;2.65;;;1.70;99.90;;;;;;5075956;28;20666;-71
2021/05/09 00:24:35;;;;;;;4.90;2.10;;;1.70;99.90;;;;;;5060621;28;20188;-72
2021/05/09 00:27:01;;;;;;;5.82;1.98;;;1.70;99.90;;;;;;5077176;28;20237;-71
2021/05/09 00:29:26;;;;;;;9.90;2.58;;;1.70;99.90;;;;;;5060558;28;20196;-71
2021/05/09 00:31:52;;;;;;;6.35;2.22;;;1.70;99.90;;;;;;5077135;28;20614;-71
2021/05/09 00:34:18;;;;;;;6.63;2.25;;;1.70;99.90;;;;;;5077928;28;20192;-72
2021/05/09 00:36:43;;;;;;;7.38;2.58;;;1.70;99.90;;;;;;5063622;28;20207;-71
2021/05/09 00:39:09;;;;;;;10.27;2.90;;;1.70;99.90;;;;;;5081082;28;20192;-71
2021/05/09 00:41:35;;;;;;;7.95;2.65;;;1.70;99.90;;;;;;5056412;28;20207;-71
2021/05/09 00:44:01;;;;;;;5.32;2.40;;;1.70;99.90;;;;;;5064046;28;20200;-71
2021/05/09 00:46:27;;;;;;;6.15;2.63;;;1.70;99.90;;;;;;5061591;28;20227;-71
2021/05/09 00:48:54;;;;;;;8.65;2.50;;;1.70;99.90;;;;;;5084341;28;20204;-71
2021/05/09 00:51:20;;;;;;;6.63;2.60;;;1.80;99.90;;;;;;5062944;28;20204;-72
2021/05/09 00:53:47;;;;;;;8.43;2.60;;;1.80;99.90;;;;;;5077925;28;20207;-71
2021/05/09 00:56:15;;;;;;;10.30;3.20;;;1.80;99.90;;;;;;5063642;28;20283;-71
2021/05/09 00:58:43;;;;;;;5.32;2.42;;;1.90;99.90;;;;;;5062248;28;20600;-71
2021/05/09 01:01:11;;;;;;;4.35;2.58;;;1.90;99.90;;;;;;5083584;28;20219;-70
2021/05/09 01:03:41;;;;;;;4.78;2.78;;;1.90;99.90;;;;;;5086088;23;20303;-75
2021/05/09 01:06:07;;;;;;;9.40;2.67;;;1.90;99.90;;;;;;5086450;28;20199;-74
2021/05/09 01:08:37;;;;;;;9.10;2.60;;;1.90;99.90;;;;;;5082400;28;20208;-74
2021/05/09 01:11:04;;;;;;;6.57;2.88;;;1.90;99.90;;;;;;5080007;28;20200;-73
2021/05/09 01:13:31;;;;;;;5.10;2.33;;;1.90;99.90;;;;;;5085382;28;20210;-74
2021/05/09 01:15:59;;;;;;;6.20;2.42;;;2.00;99.90;;;;;;5086173;28;20231;-74
2021/05/09 01:18:25;;;;;;;3.17;2.00;;;1.90;99.90;;;;;;5074840;28;20198;-74
2021/05/09 01:20:51;;;;;;;3.83;2.00;;;1.90;99.90;;;;;;5084814;28;20295;-74
2021/05/09 01:23:16;;;;;;;3.60;2.38;;;1.90;99.90;;;;;;5084415;28;20207;-74
2021/05/09 01:25:42;;;;;;;7.57;2.88;;;1.90;99.90;;;;;;5079760;28;20196;-74
2021/05/09 01:28:08;;;;;;;9.20;2.70;;;1.90;99.90;;;;;;5086004;28;20216;-74
2021/05/09 01:30:34;;;;;;;8.00;2.60;;;1.80;99.90;;;;;;5082490;28;20268;-74
2021/05/09 01:33:00;;;;;;;10.43;2.72;;;1.80;99.90;;;;;;5080754;28;20576;-74
2021/05/09 01:35:25;;;;;;;4.20;2.38;;;1.80;99.90;;;;;;5084592;28;20721;-74
2021/05/09 01:37:51;;;;;;;4.50;2.53;;;1.70;99.90;;;;;;5087686;28;20216;-75
2021/05/09 01:40:17;;;;;;;7.68;2.50;;;1.70;99.90;;;;;;5070037;28;20188;-74
2021/05/09 01:42:43;;;;;;;8.30;2.88;;;1.70;99.90;;;;;;5082717;28;20201;-74
2021/05/09 01:45:10;;;;;;;5.28;2.50;;;1.70;99.90;;;;;;5082081;28;20196;-74
2021/05/09 01:47:37;;;;;;;4.88;2.63;;;1.70;99.90;;;;;;5070911;28;20201;-74
2021/05/09 01:50:20;;;;;;;2.83;2.17;;;1.70;99.90;;;;;;5081145;28;20777;-74
2021/05/09 01:52:47;;;;;;;5.22;2.45;;;1.80;99.90;;;;;;5060712;28;20193;-74
2021/05/09 01:55:18;;;;;;;7.65;2.60;;;1.70;99.90;;;;;;5073521;28;20718;-74
2021/05/09 01:57:44;;;;;;;9.10;2.83;;;1.70;99.90;;;;;;5082644;28;20237;-74
2021/05/09 02:00:17;;;;;;;4.35;2.42;;;1.70;99.90;;;;;;5065779;28;20209;-74
2021/05/09 02:02:42;;;;;;;5.70;2.50;;;1.70;99.90;;;;;;5058800;28;20234;-73
2021/05/09 02:05:10;;;;;;;5.13;2.60;;;1.80;99.90;;;;;;5069435;28;20221;-74
2021/05/09 02:07:35;;;;;;;5.68;2.47;;;1.80;99.90;;;;;;5083157;28;20610;-74
2021/05/09 02:10:02;;;;;;;6.10;2.30;;;1.80;99.90;;;;;;5083555;28;20231;-74
2021/05/09 02:12:28;;;;;;;5.40;2.45;;;1.80;99.90;;;;;;5077054;28;20196;-74
2021/05/09 02:14:54;;;;;;;10.20;2.60;;;1.90;99.90;;;;;;5058706;28;20205;-74
2021/05/09 02:17:20;;;;;;;6.80;2.45;;;1.90;99.90;;;;;;5073971;28;20200;-74
2021/05/09 02:19:47;;;;;;;6.20;2.30;;;1.90;99.90;;;;;;5073512;28;20288;-75
2021/05/09 02:22:13;;;;;;;5.63;2.20;;;2.00;99.90;;;;;;5065482;28;20295;-74
2021/05/09 02:24:38;;;;;;;7.68;2.67;;;2.10;99.90;;;;;;5077499;28;20311;-75
2021/05/09 02:27:04;;;;;;;10.50;2.58;;;2.10;99.90;;;;;;5079204;28;20709;-74
2021/05/09 02:29:30;;;;;;;6.82;1.92;;;2.10;99.90;;;;;;5080996;28;20193;-75
2021/05/09 02:31:56;;;;;;;8.13;2.47;;;2.10;99.90;;;;;;5077348;28;20610;-75
2021/05/09 02:34:21;;;;;;;6.53;2.53;;;2.10;99.90;;;;;;5071573;28;20251;-75
2021/05/09 02:36:47;;;;;;;5.03;2.50;;;2.10;99.90;;;;;;5078367;28;20245;-75
2021/05/09 02:39:13;;;;;;;7.50;2.30;;;2.10;99.90;;;;;;5077699;28;20203;-74
2021/05/09 02:41:40;;;;;;;4.10;1.90;;;2.10;99.90;;;;;;5077399;28;20683;-73
2021/05/09 02:44:06;;;;;;;7.72;2.53;;;2.10;99.90;;;;;;5087869;28;20197;-73
2021/05/09 02:46:32;;;;;;;3.90;2.47;;;2.10;99.90;;;;;;5078780;28;20291;-74
2021/05/09 02:48:58;;;;;;;4.45;2.20;;;2.10;99.90;;;;;;5077062;28;20228;-74
2021/05/09 02:51:24;;;;;;;3.88;2.00;;;2.10;99.90;;;;;;5081904;28;20307;-74
2021/05/09 02:53:49;;;;;;;9.05;2.67;;;2.10;99.90;;;;;;5074442;28;20254;-74
2021/05/09 02:56:15;;;;;;;8.63;2.20;;;2.10;99.90;;;;;;5073682;28;20238;-74
2021/05/09 02:58:41;;;;;;;4.10;2.15;;;2.20;99.90;;;;;;5070168;28;20195;-74
2021/05/09 03:01:06;;;;;;;5.40;2.30;;;2.20;99.90;;;;;;5077273;28;20230;-74
2021/05/09 03:03:32;;;;;;;4.97;2.13;;;2.20;99.90;;;;;;5086247;28;20188;-74
2021/05/09 03:05:58;;;;;;;7.90;2.72;;;2.20;99.90;;;;;;5082048;28;20196;-74
2021/05/09 03:08:24;;;;;;;7.68;2.45;;;2.20;99.90;;;;;;5077170;28;20196;-74
2021/05/09 03:10:49;;;;;;;8.50;2.30;;;2.30;99.90;;;;;;5082533;28;20609;-73
2021/05/09 03:13:15;;;;;;;7.40;2.60;;;2.40;99.90;;;;;;5079238;28;20533;-74
2021/05/09 03:15:41;;;;;;;9.57;2.63;;;2.40;99.90;;;;;;5067004;28;20253;-74
2021/05/09 03:18:06;;;;;;;6.88;2.55;;;2.50;99.90;;;;;;5082792;28;20271;-75
2021/05/09 03:20:32;;;;;;;5.88;2.28;;;2.50;99.90;;;;;;5081762;28;20231;-75
2021/05/09 03:22:58;;;;;;;7.15;2.30;;;2.50;99.90;;;;;;5070379;28;20203;-74
2021/05/09 03:25:23;;;;;;;6.50;2.30;;;2.50;99.90;;;;;;5067379;28;20667;-75
2021/05/09 03:27:49;;;;;;;4.43;2.55;;;2.60;99.90;;;;;;5063401;28;20253;-74
2021/05/09 03:30:15;;;;;;;5.18;2.78;;;2.70;99.90;;;;;;5078538;28;20304;-74
2021/05/09 03:32:41;;;;;;;6.18;2.40;;;2.70;99.90;;;;;;5077121;28;20193;-74
2021/05/09 03:35:08;;;;;;;5.43;2.35;;;2.80;99.90;;;;;;5067158;28;20813;-74
2021/05/09 03:37:35;;;;;;;3.65;2.58;;;2.90;99.90;;;;;;5080014;28;20339;-74
2021/05/09 03:40:01;;;;;;;11.23;2.83;;;2.90;99.90;;;;;;5079359;28;20208;-74
2021/05/09 03:42:26;;;;;;;6.93;2.92;;;3.00;99.90;;;;;;5073970;28;20208;-74
2021/05/09 03:44:52;;;;;;;5.70;2.97;;;3.00;99.90;;;;;;5080208;28;20219;-74
2021/05/09 03:47:25;;;;;;;6.28;2.50;;;3.00;99.90;;;;;;5071553;28;20609;-74
2021/05/09 03:49:51;;;;;;;9.07;2.30;;;3.10;99.90;;;;;;5086358;28;20223;-74
2021/05/09 03:52:17;;;;;;;7.25;2.58;;;3.10;99.90;;;;;;5078269;28;20206;-74
2021/05/09 03:54:43;;;;;;;6.45;2.53;;;3.20;99.90;;;;;;5078262;28;20196;-74
2021/05/09 03:57:08;;;;;;;7.47;2.42;;;3.30;99.90;;;;;;5072320;28;20202;-74
2021/05/09 03:59:34;;;;;;;9.00;3.08;;;3.30;99.90;;;;;;5082157;28;20195;-74
2021/05/09 04:01:59;;;;;;;5.10;2.67;;;3.40;99.90;;;;;;5071752;28;20204;-74
2021/05/09 04:04:25;;;;;;;5.00;2.70;;;3.40;99.90;;;;;;5080888;28;20382;-74
2021/05/09 04:06:51;;;;;;;5.50;2.80;;;3.50;99.90;;;;;;5079067;28;20243;-75
2021/05/09 04:09:16;;;;;;;6.78;2.35;;;3.50;99.90;;;;;;5059673;28;20204;-74
2021/05/09 04:11:42;;;;;;;8.43;2.60;;;3.50;99.90;;;;;;5076789;28;20208;-74
2021/05/09 04:14:08;;;;;;;6.65;2.40;;;3.60;99.90;;;;;;5077301;28;20253;-74
2021/05/09 04:16:33;;;;;;;5.30;2.38;;;3.70;99.90;;;;;;5075916;28;20196;-74
2021/05/09 04:18:59;;;;;;;5.63;2.95;;;3.70;99.90;;;;;;5073491;28;20197;-74
2021/05/09 04:21:24;;;;;;;4.82;2.65;;;3.70;99.90;;;;;;5071558;28;20204;-74
2021/05/09 04:23:50;;;;;;;11.05;2.63;;;3.80;99.90;;;;;;5082241;28;20657;-75
2021/05/09 04:26:16;;;;;;;4.30;2.75;;;3.80;99.90;;;;;;5077807;28;20560;-75
2021/05/09 04:28:41;;;;;;;3.70;2.47;;;3.80;99.90;;;;;;5069744;28;21436;-74
2021/05/09 04:31:07;;;;;;;5.45;2.75;;;3.90;99.90;;;;;;5080768;28;20240;-73
2021/05/09 04:33:33;;;;;;;4.35;2.83;;;3.90;99.90;;;;;;5081545;28;20199;-75
2021/05/09 04:35:58;;;;;;;6.03;2.80;;;3.90;99.90;;;;;;5063708;28;20188;-75
2021/05/09 04:38:24;;;;;;;4.82;2.80;;;4.00;99.90;;;;;;5086040;28;20275;-75
2021/05/09 04:40:50;;;;;;;9.05;3.03;;;4.00;99.90;;;;;;5083829;28;20248;-74
2021/05/09 04:43:19;;;;;;;6.47;3.13;;;4.10;99.90;;;;;;5082546;28;20192;-75
2021/05/09 04:45:54;;;;;;;6.22;3.10;;;4.10;99.90;;;;;;5081182;28;20212;-74
2021/05/09 04:48:20;;;;;;;5.90;2.92;;;4.20;99.90;;;;;;5078171;28;20238;-75
2021/05/09 04:50:46;;;;;;;4.88;3.03;;;4.30;99.90;;;;;;5074308;28;20210;-75
2021/05/09 04:53:31;;;;;;;5.63;2.65;;;4.40;99.90;;;;;;5079092;28;20212;-75
2021/05/09 04:55:59;;;;;;;6.40;2.67;;;4.50;99.90;;;;;;5077191;28;20188;-74
2021/05/09 04:58:28;;;;;;;6.22;2.90;;;4.50;99.90;;;;;;5081891;28;20201;-75
2021/05/09 05:00:56;;;;;;;6.88;3.10;;;4.60;99.90;;;;;;5086586;28;20196;-75
2021/05/09 05:03:22;;;;;;;9.52;2.90;;;4.70;99.90;;;;;;5079312;28;20196;-74
2021/05/09 05:05:48;;;;;;;10.75;3.30;;;4.70;99.90;;;;;;5095730;28;20730;-75
2021/05/09 05:08:14;;;;;;;7.85;3.30;;;4.80;99.90;;;;;;5077077;28;20208;-74
2021/05/09 05:10:39;;;;;;;6.55;3.15;;;4.80;99.90;;;;;;5076950;28;21450;-74
2021/05/09 05:13:22;;;;;;;10.85;3.10;;;4.90;99.90;;;;;;5088462;28;20277;-74
2021/05/09 05:15:49;;;;;;;5.22;2.83;;;4.90;99.90;;;;;;5075233;28;20278;-74
2021/05/09 05:18:15;;;;;;;5.82;2.88;;;4.90;99.90;;;;;;5089797;28;21615;-74
2021/05/09 05:20:42;;;;;;;9.52;2.75;;;5.10;99.90;;;;;;5073364;28;20202;-75
2021/05/09 05:23:08;;;;;;;4.53;2.80;;;5.10;99.90;;;;;;5082795;28;20238;-74
2021/05/09 05:25:33;;;;;;;5.70;3.00;;;5.10;99.90;;;;;;5083529;28;20227;-74
2021/05/09 05:28:02;;;;;;;8.10;2.92;;;5.20;99.90;;;;;;5083316;28;20662;-74
2021/05/09 05:30:28;;;;;;;8.27;2.92;;;5.20;99.90;;;;;;5085693;28;20602;-74
2021/05/09 05:32:54;;;;;;;5.57;2.65;;;5.20;99.90;;;;;;5079543;28;20283;-74
2021/05/09 05:35:20;;;;;;;6.25;2.97;;;5.20;99.90;;;;;;5074123;28;20687;-75
2021/05/09 05:37:46;;;;;;;5.22;2.78;;;5.20;99.90;;;;;;5082837;28;20280;-75
2021/05/09 05:40:12;;;;;;;8.63;2.88;;;5.20;99.90;;;;;;5082838;28;20608;-75
2021/05/09 05:42:38;;;;;;;4.72;2.97;;;5.20;99.90;;;;;;5082742;28;20665;-74
2021/05/09 05:45:07;;;;;;;14.80;4.18;;;5.30;99.90;;;;;;5096930;28;20192;-75
2021/05/09 05:47:33;;;;;;;9.38;5.32;;;5.30;99.90;;;;;;5068834;28;20213;-74
2021/05/09 05:49:59;;;;;;;9.90;3.50;;;5.40;99.90;;;;;;5078079;28;20232;-75
2021/05/09 05:52:25;;;;;;;5.72;3.15;;;5.40;99.90;;;;;;5085830;28;20261;-75
2021/05/09 05:54:51;;;;;;;9.52;3.63;;;5.50;99.90;;;;;;5074253;28;20192;-75
2021/05/09 05:57:17;;;;;;;11.27;3.28;;;5.50;99.90;;;;;;5087060;28;20254;-75
2021/05/09 05:59:42;;;;;;;8.73;3.28;;;5.60;99.90;;;;;;5082507;28;20678;-74
2021/05/09 06:02:08;;;;;;;8.05;3.10;;;5.70;99.90;;;;;;5072164;28;20331;-74
2021/05/09 06:04:34;;;;;;;6.65;2.92;;;5.80;99.90;;;;;;5079014;28;20254;-75
2021/05/09 06:06:59;;;;;;;8.23;2.97;;;5.90;99.90;;;;;;5066183;28;20235;-75
2021/05/09 06:09:25;;;;;;;7.68;3.15;;;5.90;99.90;;;;;;5087922;28;20204;-76
2021/05/09 06:11:51;;;;;;;5.00;2.67;;;5.90;99.90;;;;;;5088962;28;20208;-74
2021/05/09 06:14:16;;;;;;;6.35;3.00;;;5.90;99.90;;;;;;5087938;28;20196;-75
2021/05/09 06:16:42;;;;;;;4.85;2.70;;;6.00;99.90;;;;;;5069238;28;20224;-75
2021/05/09 06:19:08;;;;;;;8.75;3.00;;;6.10;99.90;;;;;;5067325;28;20192;-75
2021/05/09 06:21:33;;;;;;;8.55;2.80;;;6.20;99.90;;;;;;5065751;28;20249;-75
2021/05/09 06:23:59;;;;;;;7.55;2.90;;;6.20;99.90;;;;;;5087719;28;20665;-74
2021/05/09 06:26:25;;;;;;;6.78;2.63;;;6.20;99.90;;;;;;5088039;28;20196;-75
2021/05/09 06:28:53;;;;;;;6.88;2.45;;;6.30;99.90;;;;;;5067759;28;20204;-75
2021/05/09 06:31:18;;;;;;;5.80;2.67;;;6.30;99.90;;;;;;5087791;28;20253;-75
2021/05/09 06:33:44;;;;;;;6.82;2.35;;;6.30;99.90;;;;;;5063278;28;20192;-75
2021/05/09 06:36:10;;;;;;;10.30;2.50;;;6.30;99.90;;;;;;5083689;28;20214;-75
2021/05/09 06:38:37;;;;;;;5.53;2.40;;;6.40;99.90;;;;;;5077034;28;20647;-75
2021/05/09 06:41:03;;;;;;;3.33;2.25;;;6.40;99.90;;;;;;5086493;28;20995;-75
2021/05/09 06:43:29;;;;;;;5.25;2.40;;;6.50;99.90;;;;;;5087306;28;20196;-75
2021/05/09 06:45:55;;;;;;;4.80;2.10;;;6.50;99.90;;;;;;5059328;28;20204;-74
2021/05/09 06:48:20;;;;;;;4.20;2.47;;;6.60;99.90;;;;;;5086572;28;20246;-75
2021/05/09 06:50:46;;;;;;;5.55;2.42;;;6.60;99.90;;;;;;5066493;28;20205;-75
2021/05/09 06:53:12;;;;;;;15.57;2.67;;;6.70;99.90;;;;;;5087310;28;20756;-74
2021/05/09 06:55:38;;;;;;;4.07;2.33;;;6.80;99.90;;;;;;5082936;28;20782;-75
2021/05/09 06:58:07;;;;;;;9.35;2.38;;;6.90;99.90;;;;;;5078319;28;20196;-75
2021/05/09 07:00:32;;;;;;;4.75;2.20;;;6.90;99.90;;;;;;5076164;28;20620;-75
2021/05/09 07:02:58;;;;;;;3.67;2.13;;;6.90;99.90;;;;;;5072826;28;20223;-74
2021/05/09 07:05:24;;;;;;;5.43;2.25;;;6.90;99.90;;;;;;5047365;28;20344;-74
2021/05/09 07:07:55;;;;;;;7.53;2.40;;;7.00;99.90;;;;;;5062645;28;20292;-75
2021/05/09 07:10:25;;;;;;;5.53;2.15;;;7.00;99.90;;;;;;5063152;28;20797;-74
2021/05/09 07:12:52;;;;;;;5.07;2.30;;;7.00;99.90;;;;;;5060754;28;20201;-75
2021/05/09 07:15:29;;;;;;;6.13;2.15;;;7.00;99.90;;;;;;5055402;28;20667;-75
2021/05/09 07:17:57;;;;;;;2.88;2.20;;;7.10;99.90;;;;;;5054405;28;20674;-75
2021/05/09 07:20:23;;;;;;;3.17;1.77;;;7.20;99.90;;;;;;5045332;28;20682;-75
2021/05/09 07:22:53;;;;;;;4.55;2.20;;;7.20;99.90;;;;;;5061824;28;20204;-75
2021/05/09 07:25:20;;;;;;;4.40;2.00;;;7.30;99.90;;;;;;5042212;28;20200;-74
2021/05/09 07:27:46;;;;;;;4.35;1.98;;;7.30;99.90;;;;;;5045748;28;20192;-75
2021/05/09 07:30:12;;;;;;;5.40;2.20;;;7.30;99.90;;;;;;5055876;28;20549;-75
2021/05/09 07:32:38;;;;;;;7.82;2.20;;;7.30;99.90;;;;;;5059581;28;20192;-75
2021/05/09 07:35:04;;;;;;;7.60;2.10;;;7.20;99.90;;;;;;5056887;28;20197;-74
2021/05/09 07:37:29;;;;;;;4.85;1.80;;;7.20;99.90;;;;;;5043895;28;20284;-74
2021/05/09 07:39:55;;;;;;;5.50;2.28;;;7.30;99.90;;;;;;5041499;28;20212;-74
2021/05/09 07:42:20;;;;;;;5.93;1.90;;;7.20;99.90;;;;;;5060790;28;20248;-74
2021/05/09 07:44:46;;;;;;;3.33;2.15;;;7.20;99.90;;;;;;5042034;28;20482;-76
2021/05/09 07:47:12;;;;;;;6.65;2.35;;;7.20;99.90;;;;;;5059780;28;20682;-75
2021/05/09 07:49:37;;;;;;;7.72;2.35;;;7.20;99.90;;;;;;5060151;28;20322;-74
2021/05/09 07:52:03;;;;;;;6.85;2.65;;;7.20;99.90;;;;;;5060734;28;20205;-74
2021/05/09 07:54:29;;;;;;;42.58;18.60;;;7.20;99.90;;;;;;5061952;28;20200;-75
2021/05/09 07:56:55;;;;;;;8.60;4.13;;;7.30;99.90;;;;;;5061710;28;20212;-75
2021/05/09 07:59:20;;;;;;;6.97;2.70;;;7.30;99.90;;;;;;5058419;28;20582;-74
2021/05/09 08:01:46;;;;;;;7.35;2.53;;;7.40;99.90;;;;;;5060958;28;20578;-75
2021/05/09 08:04:12;;;;;;;3.83;2.35;;;7.40;99.90;;;;;;5040755;28;20638;-74
2021/05/09 08:06:39;;;;;;;5.65;2.40;;;7.30;99.90;;;;;;5062859;28;20197;-74
2021/05/09 08:09:06;;;;;;;4.97;2.45;;;7.30;99.90;;;;;;5062504;28;20201;-74
2021/05/09 08:11:32;;;;;;;3.88;2.22;;;7.20;99.90;;;;;;5062181;28;20208;-74
2021/05/09 08:13:57;;;;;;;4.85;2.35;;;7.30;99.90;;;;;;5062181;28;20204;-74
2021/05/09 08:16:23;;;;;;;5.90;2.42;;;7.20;99.90;;;;;;5055820;28;20232;-75
2021/05/09 08:18:48;;;;;;;9.48;2.90;;;7.30;99.90;;;;;;5061460;28;20193;-75
2021/05/09 08:21:14;;;;;;;8.32;2.83;;;7.40;99.90;;;;;;5063294;28;20200;-74
2021/05/09 08:23:43;;;;;;;10.90;2.88;;;7.50;99.90;;;;;;5064778;28;20251;-75
2021/05/09 08:26:12;;;;;;;9.38;2.90;;;7.60;99.90;;;;;;5062807;28;20246;-74
2021/05/09 08:28:40;;;;;;;7.93;2.75;;;7.70;99.90;;;;;;5057854;28;20546;-74
2021/05/09 08:31:06;;;;;;;6.80;2.67;;;7.80;99.90;;;;;;5061075;28;20201;-75
2021/05/09 08:33:31;;;;;;;5.63;2.40;;;7.80;99.90;;;;;;5059890;28;20204;-75
2021/05/09 08:35:57;;;;;;;6.70;2.38;;;7.70;99.90;;;;;;5061424;28;20201;-75
2021/05/09 08:38:24;;;;;;;9.80;2.70;;;7.60;99.90;;;;;;5055132;28;20193;-75
2021/05/09 08:40:50;;;;;;;4.00;2.50;;;7.50;99.90;;;;;;5042042;28;20231;-74
2021/05/09 08:43:16;;;;;;;5.85;2.45;;;7.40;99.90;;;;;;5051192;28;20238;-75
2021/05/09 08:45:41;;;;;;;5.78;2.88;;;7.20;99.90;;;;;;5056864;28;20601;-74
2021/05/09 08:48:16;;;;;;;6.80;2.83;;;7.10;99.90;;;;;;5059954;28;20192;-75
2021/05/09 08:50:42;;;;;;;5.55;2.75;;;7.20;99.90;;;;;;5056920;28;20460;-74
2021/05/09 08:53:08;;;;;;;9.32;3.25;;;7.20;99.90;;;;;;5056833;28;20197;-74
2021/05/09 08:55:34;;;;;;;4.20;2.70;;;7.20;99.90;;;;;;5052211;28;20534;-75
2021/05/09 08:57:59;;;;;;;4.90;2.65;;;7.20;99.90;;;;;;5059002;28;20965;-74
2021/05/09 09:00:26;;;;;;;7.03;2.92;;;7.00;99.90;;;;;;5058282;28;20221;-75
2021/05/09 09:02:51;;;;;;;6.97;2.42;;;6.90;99.90;;;;;;5058584;28;20197;-74
2021/05/09 09:05:32;;;;;;;11.70;3.15;;;6.90;99.90;;;;;;5051665;28;20236;-74
2021/05/09 09:07:58;;;;;;;6.55;3.10;;;6.80;99.90;;;;;;5054230;28;20214;-75
2021/05/09 09:10:46;;;;;;;10.35;2.88;;;6.80;99.90;;;;;;5060094;28;20603;-75
2021/05/09 09:13:26;;;;;;;7.05;2.70;;;6.70;99.90;;;;;;5054288;28;20251;-76
2021/05/09 09:15:56;;;;;;;7.75;3.13;;;6.60;99.90;;;;;;5056538;28;20193;-77
2021/05/09 09:18:39;;;;;;;5.07;2.65;;;6.60;99.90;;;;;;5061042;28;20193;-76
2021/05/09 09:21:26;;;;;;;5.70;2.83;;;6.60;99.90;;;;;;5052640;28;20208;-77
2021/05/09 09:24:04;;;;;;;4.55;2.90;;;6.60;99.90;;;;;;5042360;28;20687;-76
2021/05/09 09:26:30;;;;;;;6.25;3.17;;;6.60;99.90;;;;;;5041893;28;20243;-76
2021/05/09 09:28:56;;;;;;;10.25;3.03;;;6.50;99.90;;;;;;5035723;28;20221;-77
2021/05/09 09:31:37;;;;;;;18.00;3.22;;;6.60;99.90;;;;;;5059689;28;20680;-76
2021/05/09 09:34:03;;;;;;;9.82;3.33;;;6.50;99.90;;;;;;5057918;28;20198;-76
2021/05/09 09:36:29;;;;;;;11.68;3.78;;;6.50;99.90;;;;;;5049086;28;20835;-77
2021/05/09 09:38:55;;;;;;;7.68;3.38;;;6.50;99.90;;;;;;5058619;28;20212;-76
2021/05/09 09:41:21;;;;;;;7.68;3.47;;;6.40;99.90;;;;;;5061580;28;20196;-76
2021/05/09 09:44:09;;;;;;;9.00;3.70;;;6.40;99.90;;;;;;5051481;28;20682;-76
2021/05/09 09:46:54;;;;;;;6.65;3.65;;;6.40;99.90;;;;;;5052937;28;20205;-76
2021/05/09 09:49:26;;;;;;;10.65;4.05;;;6.40;99.90;;;;;;5059069;28;20788;-75
2021/05/09 09:51:56;;;;;;;12.35;4.03;;;6.30;99.90;;;;;;5040991;28;20595;-76
2021/05/09 09:54:39;;;;;;;8.88;3.95;;;6.30;99.90;;;;;;5048551;28;20597;-76
2021/05/09 09:57:07;;;;;;;5.32;3.47;;;6.40;99.90;;;;;;5035616;28;20197;-76
2021/05/09 09:59:34;;;;;;;9.63;3.90;;;6.40;99.90;;;;;;5053159;28;20222;-75
2021/05/09 10:02:05;;;;;;;20.70;12.48;;;6.50;99.90;;;;;;5055120;28;20206;-76
2021/05/09 10:04:30;;;;;;;12.30;4.53;;;6.40;99.90;;;;;;5057363;28;20364;-76
2021/05/09 10:06:56;;;;;;;16.65;5.28;;;6.30;99.90;;;;;;5063745;28;20204;-76
2021/05/09 10:09:22;;;;;;;11.13;4.50;;;6.20;99.90;;;;;;5058764;28;20215;-75
2021/05/09 10:11:48;;;;;;;7.68;4.65;;;6.20;99.90;;;;;;5045719;28;20208;-76
2021/05/09 10:14:13;;;;;;;10.43;5.22;;;6.20;99.90;;;;;;5062935;28;20196;-76
2021/05/09 10:16:48;;;;;;;10.10;4.40;;;6.20;99.90;;;;;;5044141;28;20283;-75
2021/05/09 10:19:16;;;;;;;8.32;4.90;;;6.20;99.90;;;;;;5060630;28;20189;-78
2021/05/09 10:21:43;;;;;;;8.55;4.53;;;6.30;99.90;;;;;;5056127;28;20192;-76
2021/05/09 10:24:22;;;;;;;11.93;5.35;;;6.30;99.90;;;;;;5060133;28;20201;-75
2021/05/09 10:27:08;;;;;;;14.10;5.32;;;6.20;99.90;;;;;;5060851;28;20308;-75
2021/05/09 10:32:06;;;;;;;12.55;5.47;;;6.30;99.90;;;;;;5057050;28;20708;-76
2021/05/09 10:34:53;;;;;;;14.85;5.60;;;6.30;99.90;;;;;;5057255;28;20196;-76
2021/05/09 10:37:46;;;;;;;9.63;5.25;;;6.30;99.90;;;;;;5056559;28;20275;-75
2021/05/09 10:40:18;;;;;;;12.45;6.18;;;6.30;99.90;;;;;;5035847;28;20756;-75
2021/05/09 10:42:45;;;;;;;17.02;8.05;;;6.30;99.90;;;;;;5062249;28;20192;-75
2021/05/09 10:45:11;;;;;;;12.43;6.07;;;6.30;99.90;;;;;;5036071;28;20197;-75
2021/05/09 10:47:36;;;;;;;10.90;6.45;;;6.40;99.90;;;;;;5045485;28;20216;-75
2021/05/09 10:50:23;;;;;;;14.43;6.90;;;6.50;99.90;;;;;;5061980;28;20208;-75
2021/05/09 10:52:51;;;;;;;10.00;5.68;;;6.50;99.90;;;;;;5058307;28;20193;-75
2021/05/09 10:55:35;;;;;;;14.07;5.60;;;6.50;99.90;;;;;;5062340;28;20193;-76
2021/05/09 10:58:02;;;;;;;7.50;5.40;;;6.60;99.90;;;;;;5061468;28;20192;-75
2021/05/09 11:00:28;;;;;;;9.55;5.45;;;6.60;99.90;;;;;;5059856;28;20250;-76
2021/05/09 11:02:53;;;;;;;8.52;5.00;;;6.70;99.90;;;;;;5055878;28;20201;-76
2021/05/09 11:05:20;;;;;;;9.90;5.00;;;6.80;99.90;;;;;;5063236;28;20646;-75
2021/05/09 11:07:46;;;;;;;10.98;5.07;;;6.80;99.90;;;;;;5080233;28;20196;-76
2021/05/09 11:10:41;;;;;;;21.50;10.30;;;6.80;99.90;;;;;;5092764;28;20200;-76
2021/05/09 11:13:08;;;;;;;13.75;6.60;;;6.80;99.90;;;;;;5081473;28;20239;-76
2021/05/09 11:15:34;;;;;;;11.77;5.85;;;6.80;99.90;;;;;;5095959;28;20279;-76
2021/05/09 11:18:11;;;;;;;8.90;5.15;;;6.80;99.90;;;;;;5100486;28;20248;-75
2021/05/09 11:20:48;;;;;;;11.27;5.45;;;6.80;99.90;;;;;;5077612;28;20640;-76
2021/05/09 11:23:14;;;;;;;9.38;6.05;;;6.80;99.90;;;;;;5099803;28;20399;-76
2021/05/09 11:25:40;;;;;;;8.13;5.38;;;6.80;99.90;;;;;;5096727;28;20298;-76
2021/05/09 11:28:05;;;;;;;10.20;5.20;;;6.80;99.90;;;;;;5076910;28;20192;-75
2021/05/09 11:30:35;;;;;;;7.72;4.70;;;6.70;99.90;;;;;;5097642;28;20527;-76
2021/05/09 11:33:01;;;;;;;8.15;5.10;;;6.80;99.90;;;;;;5078194;28;20195;-76
2021/05/09 11:35:39;;;;;;;9.48;5.68;;;6.90;99.90;;;;;;5095017;28;21114;-75
2021/05/09 11:38:15;;;;;;;9.85;5.63;;;6.90;99.90;;;;;;5080311;28;20203;-76
2021/05/09 11:40:42;;;;;;;9.70;4.68;;;6.80;99.90;;;;;;5091646;28;20199;-75
2021/05/09 11:43:14;;;;;;;9.65;5.20;;;6.80;99.90;;;;;;5094369;28;20211;-75
2021/05/09 11:45:40;;;;;;;6.40;4.63;;;6.80;99.90;;;;;;5096312;28;20204;-75
2021/05/09 11:48:06;;;;;;;8.10;5.05;;;6.90;99.90;;;;;;5095611;28;20199;-75
2021/05/09 11:50:32;;;;;;;7.97;4.72;;;6.90;99.90;;;;;;5097002;28;20205;-76
2021/05/09 11:52:58;;;;;;;10.07;5.32;;;7.00;99.90;;;;;;5099431;28;20199;-76
2021/05/09 11:55:23;;;;;;;7.78;4.88;;;7.00;99.90;;;;;;5074635;28;20545;-76
2021/05/09 11:57:49;;;;;;;6.88;4.78;;;7.00;99.90;;;;;;5099637;28;20633;-76
2021/05/09 12:00:18;;;;;;;10.02;4.90;;;7.10;99.90;;;;;;5100539;28;20223;-76
2021/05/09 12:02:47;;;;;;;6.55;4.57;;;7.00;99.90;;;;;;5098090;28;20183;-76
2021/05/09 12:05:17;;;;;;;9.93;4.80;;;7.00;99.90;;;;;;5080758;28;20276;-76
2021/05/09 12:07:59;;;;;;;10.57;4.50;;;7.00;99.90;;;;;;5056159;28;20202;-77
2021/05/09 12:10:24;;;;;;;10.70;4.75;;;7.00;99.90;;;;;;5071966;28;20193;-76
2021/05/09 12:13:00;;;;;;;12.05;5.13;;;7.10;99.90;;;;;;5071865;28;20197;-76
2021/05/09 12:15:35;;;;;;;8.80;4.40;;;7.20;99.90;;;;;;5071301;28;20277;-76
2021/05/09 12:18:01;;;;;;;8.43;4.03;;;7.10;99.90;;;;;;5072631;28;20313;-76
2021/05/09 12:20:31;;;;;;;8.50;4.40;;;7.20;99.90;;;;;;5080111;28;20192;-76
2021/05/09 12:23:00;;;;;;;7.72;4.50;;;7.20;99.90;;;;;;5075183;28;20201;-76
2021/05/09 12:25:32;;;;;;;7.45;5.07;;;7.30;99.90;;;;;;5066668;28;20220;-76
2021/05/09 12:28:08;;;;;;;7.13;4.60;;;7.40;99.90;;;;;;5074294;28;20330;-76
2021/05/09 12:30:34;;;;;;;15.50;4.07;;;7.40;99.90;;;;;;5075264;28;20214;-76
2021/05/09 12:32:59;;;;;;;6.00;4.13;;;7.50;99.90;;;;;;5073829;28;20204;-76
2021/05/09 12:35:25;;;;;;;6.32;4.15;;;7.50;99.90;;;;;;5064097;28;20575;-76
2021/05/09 12:37:54;;;;;;;7.90;3.80;;;7.60;99.90;;;;;;5066279;28;20601;-77
2021/05/09 12:40:25;;;;;;;9.80;4.55;;;7.60;99.90;;;;;;5074941;28;20196;-76
2021/05/09 12:43:10;;;;;;;14.60;5.22;;;7.50;99.90;;;;;;5040624;28;20634;-76
2021/05/09 12:45:40;;;;;;;7.05;4.38;;;7.30;99.90;;;;;;5064173;28;20228;-76
2021/05/09 12:48:06;;;;;;;17.48;8.15;;;7.20;99.90;;;;;;5071964;28;20201;-76
2021/05/09 12:51:11;;;;;;;11.85;6.13;;;7.20;99.90;;;;;;5083919;28;20211;-76
2021/05/09 12:53:41;;;;;;;12.90;5.50;;;7.30;99.90;;;;;;5076159;28;20231;-77
2021/05/09 12:56:24;;;;;;;7.32;5.07;;;7.30;99.90;;;;;;5083247;28;20237;-76
2021/05/09 12:59:03;;;;;;;7.28;4.50;;;7.40;99.90;;;;;;5084001;28;20204;-76
2021/05/09 13:01:31;;;;;;;8.77;4.45;;;7.30;99.90;;;;;;5083846;28;20199;-77